Time;durP1;ratioP1;P1;durP2;ratioP2;P2;SDS_P1;SDS_P2;PMS_P1;PMS_P2;Temp;Humidity;BMP_temperature;BMP_pressure;BME280_temperature;BME280_humidity;BME280_pressure;Samples;Min_cycle;Max_cycle;Signal;HPM_P1;HPM_P2
2023/05/02 00:02:46;;;;;;;9.25;8.45;;;23.10;75.10;;;;;;6253196;28;94424;-72
2023/05/02 00:05:48;;;;;;;9.48;8.57;;;23.10;75.10;;;;;;6252732;28;94220;-72
2023/05/02 00:08:50;;;;;;;9.18;8.38;;;23.10;75.20;;;;;;6252997;28;94148;-71
2023/05/02 00:11:52;;;;;;;9.20;8.30;;;23.10;75.20;;;;;;6253927;28;94452;-71
2023/05/02 00:14:54;;;;;;;9.30;8.43;;;23.10;75.20;;;;;;6242190;28;93029;-71
2023/05/02 00:17:57;;;;;;;8.82;8.02;;;23.10;75.20;;;;;;6253653;28;94125;-71
2023/05/02 00:20:59;;;;;;;8.48;7.55;;;23.10;75.10;;;;;;6253650;27;93350;-72
2023/05/02 00:24:01;;;;;;;8.77;7.97;;;23.10;75.00;;;;;;6247426;28;94583;-72
2023/05/02 00:27:05;;;;;;;9.57;8.68;;;23.10;75.00;;;;;;6242203;28;94437;-72
2023/05/02 00:30:08;;;;;;;9.07;8.27;;;23.10;75.10;;;;;;6252870;28;95134;-71
2023/05/02 00:33:13;;;;;;;9.98;8.98;;;23.10;75.20;;;;;;6253735;28;94086;-71
2023/05/02 00:36:16;;;;;;;11.73;9.10;;;23.10;75.10;;;;;;6252605;28;93064;-71
2023/05/02 00:39:18;;;;;;;10.60;9.15;;;23.10;75.20;;;;;;6248899;28;94332;-71
2023/05/02 00:42:20;;;;;;;9.70;8.80;;;23.10;75.20;;;;;;6246549;27;94388;-71
2023/05/02 00:45:22;;;;;;;9.27;8.38;;;23.00;75.20;;;;;;6251279;28;94302;-71
2023/05/02 00:48:26;;;;;;;10.05;9.07;;;23.00;75.20;;;;;;6232019;28;94163;-72
2023/05/02 00:51:28;;;;;;;9.63;8.73;;;23.10;75.20;;;;;;6237904;28;94012;-72
2023/05/02 00:54:31;;;;;;;9.77;8.88;;;23.10;75.20;;;;;;6245535;28;94341;-71
2023/05/02 00:57:34;;;;;;;9.75;8.85;;;23.00;75.20;;;;;;6251630;28;94119;-72
2023/05/02 01:00:47;;;;;;;9.68;8.77;;;23.00;75.20;;;;;;6251831;28;95088;-71
2023/05/02 01:04:02;;;;;;;10.20;9.20;;;23.10;75.20;;;;;;6243130;28;94183;-72
2023/05/02 01:07:17;;;;;;;9.98;9.07;;;23.10;75.20;;;;;;6247227;28;93923;-71
2023/05/02 01:10:25;;;;;;;10.27;9.32;;;23.00;75.20;;;;;;6252119;28;95587;-71
2023/05/02 01:13:33;;;;;;;9.80;8.90;;;23.10;75.20;;;;;;6248849;28;94215;-72
2023/05/02 01:16:39;;;;;;;10.40;9.43;;;23.00;75.20;;;;;;6252318;28;94164;-71
2023/05/02 01:19:46;;;;;;;10.45;9.45;;;23.00;75.20;;;;;;6250100;28;94167;-72
2023/05/02 01:22:49;;;;;;;10.88;9.77;;;23.00;75.20;;;;;;6236391;28;93341;-71
2023/05/02 01:26:06;;;;;;;10.48;9.43;;;23.00;75.30;;;;;;6241371;28;94094;-71
2023/05/02 01:29:11;;;;;;;9.20;8.30;;;23.00;75.20;;;;;;6237781;28;94101;-71
2023/05/02 01:32:15;;;;;;;10.38;9.27;;;23.10;75.20;;;;;;6241753;28;95295;-72
2023/05/02 01:35:19;;;;;;;10.07;9.18;;;23.00;75.20;;;;;;6245345;28;94479;-72
2023/05/02 01:38:24;;;;;;;10.48;9.48;;;23.00;76.10;;;;;;6253668;28;94191;-72
2023/05/02 01:41:28;;;;;;;10.40;9.40;;;23.00;75.20;;;;;;6252784;28;94085;-72
2023/05/02 01:44:35;;;;;;;10.57;9.57;;;23.00;75.20;;;;;;6249798;28;94045;-72
2023/05/02 01:47:39;;;;;;;10.68;9.68;;;23.00;75.20;;;;;;6249955;28;94087;-72
2023/05/02 01:50:43;;;;;;;10.30;9.40;;;23.00;75.20;;;;;;6251465;28;93011;-71
2023/05/02 01:53:46;;;;;;;11.00;10.00;;;23.00;75.20;;;;;;6251291;28;93406;-72
2023/05/02 01:56:49;;;;;;;10.20;9.30;;;23.00;75.20;;;;;;6243375;28;94540;-71
2023/05/02 01:59:54;;;;;;;10.40;9.40;;;23.00;75.20;;;;;;6252572;28;94572;-72
2023/05/02 02:02:58;;;;;;;10.88;9.88;;;23.00;75.40;;;;;;6249308;28;95041;-71
2023/05/02 02:06:03;;;;;;;10.20;9.20;;;23.00;75.20;;;;;;6239906;28;94171;-72
2023/05/02 02:09:05;;;;;;;10.70;9.70;;;23.00;75.30;;;;;;6250193;28;94095;-72
2023/05/02 02:12:12;;;;;;;10.25;9.35;;;23.00;75.20;;;;;;6250794;28;94119;-72
2023/05/02 02:15:21;;;;;;;10.77;9.77;;;23.00;75.20;;;;;;6250286;28;94399;-72
2023/05/02 02:18:25;;;;;;;10.60;9.50;;;23.00;75.30;;;;;;6248527;28;94085;-72
2023/05/02 02:21:31;;;;;;;10.02;9.02;;;23.00;75.30;;;;;;6243005;28;94119;-72
2023/05/02 02:24:36;;;;;;;11.25;10.15;;;23.00;75.30;;;;;;6243367;28;93300;-71
2023/05/02 02:27:40;;;;;;;11.20;10.05;;;23.00;75.30;;;;;;6249809;28;93966;-72
2023/05/02 02:30:43;;;;;;;10.45;9.45;;;23.00;75.40;;;;;;6251594;28;93997;-71
2023/05/02 02:33:46;;;;;;;11.20;10.20;;;23.00;75.30;;;;;;6253771;28;95418;-73
2023/05/02 02:36:52;;;;;;;10.48;9.48;;;23.00;75.40;;;;;;6243097;28;94025;-72
2023/05/02 02:40:00;;;;;;;10.30;9.30;;;23.00;75.40;;;;;;6254932;28;94049;-72
2023/05/02 02:43:11;;;;;;;9.52;8.68;;;23.00;75.40;;;;;;6254978;28;94108;-72
2023/05/02 02:46:34;;;;;;;9.55;8.75;;;23.00;75.40;;;;;;6254929;28;94105;-72
2023/05/02 02:49:46;;;;;;;10.65;9.65;;;23.00;75.30;;;;;;6253841;28;94113;-72
2023/05/02 02:52:53;;;;;;;10.40;9.40;;;23.00;75.40;;;;;;6255083;27;94167;-72
2023/05/02 02:55:57;;;;;;;10.40;9.40;;;23.00;75.40;;;;;;6243103;28;93269;-72
2023/05/02 02:59:05;;;;;;;10.30;9.40;;;22.90;75.20;;;;;;6249945;28;94195;-72
2023/05/02 03:02:12;;;;;;;9.60;8.73;;;23.00;75.30;;;;;;6247855;28;94119;-73
2023/05/02 03:05:15;;;;;;;9.30;8.48;;;23.00;75.40;;;;;;6253880;28;95135;-72
2023/05/02 03:08:17;;;;;;;10.57;9.57;;;23.00;75.40;;;;;;6254285;28;94190;-72
2023/05/02 03:11:19;;;;;;;10.00;9.05;;;22.90;75.40;;;;;;6240446;28;94127;-72
2023/05/02 03:14:21;;;;;;;9.55;8.63;;;23.00;75.50;;;;;;6255941;28;93028;-72
2023/05/02 03:17:25;;;;;;;9.73;8.73;;;22.90;75.40;;;;;;6255003;28;94113;-73
2023/05/02 03:20:27;;;;;;;9.30;8.50;;;22.90;75.40;;;;;;6254445;28;93119;-73
2023/05/02 03:23:29;;;;;;;9.85;8.93;;;22.90;75.30;;;;;;6253238;28;94357;-72
2023/05/02 03:26:31;;;;;;;9.70;8.80;;;22.90;75.30;;;;;;6249923;28;92229;-72
2023/05/02 03:29:33;;;;;;;8.98;8.18;;;23.00;75.40;;;;;;6250391;28;94255;-71
2023/05/02 03:32:37;;;;;;;9.57;8.68;;;23.00;75.40;;;;;;6248557;27;94161;-71
2023/05/02 03:35:39;;;;;;;9.35;8.45;;;23.00;75.40;;;;;;6244551;28;95147;-72
2023/05/02 03:38:41;;;;;;;9.13;8.32;;;22.90;75.40;;;;;;6251589;28;92952;-72
2023/05/02 03:41:43;;;;;;;9.23;8.32;;;23.00;75.40;;;;;;6253072;28;94326;-72
2023/05/02 03:44:45;;;;;;;9.18;8.38;;;22.90;75.40;;;;;;6253831;28;94183;-71
2023/05/02 03:47:48;;;;;;;9.60;8.70;;;22.90;75.40;;;;;;6253849;28;94022;-71
2023/05/02 03:50:50;;;;;;;9.10;8.20;;;22.90;75.40;;;;;;6253585;28;94397;-70
2023/05/02 03:53:53;;;;;;;9.15;8.25;;;22.90;75.40;;;;;;6252416;27;94215;-71
2023/05/02 03:56:55;;;;;;;9.45;8.48;;;22.90;75.40;;;;;;6242526;28;93695;-72
2023/05/02 03:59:57;;;;;;;9.07;8.27;;;22.90;75.50;;;;;;6244555;28;94094;-71
2023/05/02 04:03:02;;;;;;;8.88;8.07;;;22.90;75.50;;;;;;6251512;28;94155;-72
2023/05/02 04:06:04;;;;;;;8.80;7.95;;;23.00;75.70;;;;;;6252439;28;97556;-71
2023/05/02 04:09:06;;;;;;;8.73;7.93;;;23.00;75.70;;;;;;6252099;28;92971;-72
2023/05/02 04:12:08;;;;;;;9.00;8.20;;;23.00;75.70;;;;;;6251389;28;95598;-72
2023/05/02 04:15:11;;;;;;;8.50;7.70;;;22.90;75.60;;;;;;6252444;28;94064;-72
2023/05/02 04:18:14;;;;;;;8.57;7.78;;;22.90;75.70;;;;;;6252977;28;94346;-72
2023/05/02 04:21:16;;;;;;;8.52;7.72;;;22.90;75.70;;;;;;6252930;28;94079;-72
2023/05/02 04:24:18;;;;;;;8.60;7.80;;;22.90;75.80;;;;;;6245887;28;93969;-72
2023/05/02 04:27:20;;;;;;;8.15;7.43;;;23.00;75.70;;;;;;6253304;28;93402;-73
2023/05/02 04:30:22;;;;;;;8.13;7.40;;;23.00;75.70;;;;;;6247398;28;94109;-72
2023/05/02 04:33:26;;;;;;;7.88;7.18;;;23.00;75.80;;;;;;6241960;28;94169;-72
2023/05/02 04:36:28;;;;;;;8.02;7.32;;;22.90;75.90;;;;;;6243308;28;95428;-72
2023/05/02 04:39:30;;;;;;;7.75;7.05;;;22.90;75.90;;;;;;6241029;28;94111;-72
2023/05/02 04:42:32;;;;;;;7.97;7.18;;;22.90;75.90;;;;;;6253066;28;94091;-72
2023/05/02 04:45:35;;;;;;;7.93;7.22;;;22.90;75.90;;;;;;6252166;28;94406;-72
2023/05/02 04:48:40;;;;;;;7.70;7.00;;;22.90;75.90;;;;;;6253634;28;94095;-72
2023/05/02 04:51:43;;;;;;;7.40;6.78;;;23.00;76.00;;;;;;6249592;27;93192;-74
2023/05/02 04:54:45;;;;;;;8.15;7.35;;;23.00;76.10;;;;;;6246706;27;94275;-73
2023/05/02 04:57:47;;;;;;;7.63;6.93;;;23.00;76.10;;;;;;6236536;27;95997;-71
2023/05/02 05:00:49;;;;;;;7.93;7.05;;;23.00;76.20;;;;;;6237622;28;94121;-68
2023/05/02 05:03:52;;;;;;;7.40;6.78;;;22.90;76.20;;;;;;6249999;28;94108;-70
2023/05/02 05:06:54;;;;;;;7.50;6.70;;;22.90;76.70;;;;;;6249543;28;95572;-69
2023/05/02 05:09:56;;;;;;;6.68;6.10;;;23.00;77.50;;;;;;6252737;28;96894;-70
2023/05/02 05:12:58;;;;;;;7.38;6.68;;;23.00;77.20;;;;;;6245508;28;94485;-72
2023/05/02 05:16:00;;;;;;;7.05;6.35;;;23.00;77.00;;;;;;6247894;28;94109;-72
2023/05/02 05:19:04;;;;;;;6.60;6.00;;;23.00;77.10;;;;;;6243508;28;94137;-74
2023/05/02 05:22:07;;;;;;;6.53;5.82;;;23.00;77.10;;;;;;6243833;28;94073;-73
2023/05/02 05:25:10;;;;;;;7.15;6.45;;;23.00;77.20;;;;;;6250507;27;94166;-72
2023/05/02 05:28:12;;;;;;;7.10;6.43;;;23.00;77.30;;;;;;6245740;28;93369;-73
2023/05/02 05:31:15;;;;;;;6.40;5.82;;;23.00;77.20;;;;;;6241622;28;94125;-72
2023/05/02 05:34:18;;;;;;;6.57;5.97;;;23.00;77.20;;;;;;6248509;28;94245;-73
2023/05/02 05:37:21;;;;;;;6.63;6.00;;;23.00;77.20;;;;;;6239312;28;95016;-73
2023/05/02 05:40:22;;;;;;;6.32;5.72;;;23.00;77.10;;;;;;6251865;28;94187;-73
2023/05/02 05:43:25;;;;;;;6.65;5.90;;;23.00;77.20;;;;;;6240288;28;94044;-74
2023/05/02 05:46:27;;;;;;;6.22;5.63;;;23.00;77.10;;;;;;6245927;28;94374;-73
2023/05/02 05:49:30;;;;;;;6.18;5.65;;;23.00;76.90;;;;;;6246079;28;94181;-74
2023/05/02 05:52:32;;;;;;;6.40;5.80;;;23.00;77.10;;;;;;6237456;28;94081;-73
2023/05/02 05:55:35;;;;;;;6.03;5.53;;;23.00;77.00;;;;;;6239366;28;93026;-73
2023/05/02 05:58:37;;;;;;;7.15;6.43;;;23.10;76.90;;;;;;6239847;28;93380;-74
2023/05/02 06:01:39;;;;;;;6.00;5.50;;;23.00;76.70;;;;;;6234831;28;94406;-73
2023/05/02 06:04:43;;;;;;;6.13;5.53;;;23.10;76.70;;;;;;6249129;27;94099;-73
2023/05/02 06:07:45;;;;;;;6.10;5.50;;;23.00;76.80;;;;;;6242522;28;95227;-73
2023/05/02 06:10:47;;;;;;;5.85;5.30;;;23.00;76.70;;;;;;6254046;28;94066;-73
2023/05/02 06:13:49;;;;;;;5.93;5.43;;;23.00;76.70;;;;;;6255276;28;94170;-73
2023/05/02 06:16:51;;;;;;;5.97;5.38;;;23.00;76.60;;;;;;6246816;28;94070;-73
2023/05/02 06:19:54;;;;;;;5.40;4.90;;;23.00;76.50;;;;;;6244952;28;94082;-74
2023/05/02 06:22:56;;;;;;;5.70;5.20;;;23.00;76.40;;;;;;6248267;28;94080;-73
2023/05/02 06:26:00;;;;;;;5.80;5.20;;;23.10;76.60;;;;;;6248602;28;94132;-73
2023/05/02 06:29:02;;;;;;;5.60;5.03;;;23.00;76.50;;;;;;6253482;28;93359;-72
2023/05/02 06:32:05;;;;;;;5.93;4.90;;;23.10;76.60;;;;;;6251656;28;93347;-73
2023/05/02 06:35:09;;;;;;;5.18;4.68;;;23.10;76.90;;;;;;6247299;28;94211;-73
2023/05/02 06:38:11;;;;;;;5.35;4.85;;;23.10;76.70;;;;;;6246183;28;95616;-72
2023/05/02 06:41:14;;;;;;;5.57;5.07;;;23.00;76.70;;;;;;6254369;28;94042;-73
2023/05/02 06:44:16;;;;;;;5.53;4.93;;;23.10;76.70;;;;;;6254479;28;93987;-73
2023/05/02 06:47:18;;;;;;;5.75;4.95;;;23.10;76.80;;;;;;6248526;28;94047;-74
2023/05/02 06:50:21;;;;;;;5.70;5.00;;;23.00;76.70;;;;;;6252400;28;94968;-70
2023/05/02 06:53:23;;;;;;;4.50;4.10;;;23.10;76.60;;;;;;6243460;28;94129;-72
2023/05/02 06:56:26;;;;;;;4.95;4.55;;;23.00;76.90;;;;;;6236354;28;94055;-72
2023/05/02 06:59:28;;;;;;;5.05;4.55;;;23.10;77.40;;;;;;6243006;28;93414;-72
2023/05/02 07:02:30;;;;;;;4.78;4.38;;;23.00;76.90;;;;;;6253714;28;94089;-72
2023/05/02 07:05:33;;;;;;;4.70;4.30;;;23.10;77.10;;;;;;6254487;27;94144;-73
2023/05/02 07:08:35;;;;;;;4.65;4.25;;;23.10;77.10;;;;;;6247133;28;95014;-72
2023/05/02 07:11:37;;;;;;;6.18;4.90;;;23.10;77.20;;;;;;6252346;28;94092;-72
2023/05/02 07:14:39;;;;;;;4.95;4.10;;;23.10;77.20;;;;;;6252861;27;94179;-71
2023/05/02 07:17:41;;;;;;;4.60;4.20;;;23.10;77.50;;;;;;6249911;27;94172;-72
2023/05/02 07:20:45;;;;;;;5.38;4.15;;;23.10;77.50;;;;;;6252837;28;94211;-72
2023/05/02 07:23:47;;;;;;;5.00;4.20;;;23.10;77.60;;;;;;6252126;28;94471;-72
2023/05/02 07:26:49;;;;;;;4.82;4.40;;;23.10;77.70;;;;;;6244474;28;94072;-73
2023/05/02 07:29:51;;;;;;;4.68;4.22;;;23.10;77.60;;;;;;6250394;28;94223;-72
2023/05/02 07:32:53;;;;;;;4.30;3.90;;;23.10;77.60;;;;;;6242048;28;94175;-72
2023/05/02 07:35:57;;;;;;;5.88;4.47;;;23.10;77.60;;;;;;6244971;28;93838;-73
2023/05/02 07:38:59;;;;;;;4.40;4.00;;;23.10;77.50;;;;;;6246092;28;94914;-72
2023/05/02 07:42:02;;;;;;;4.70;3.90;;;23.10;77.50;;;;;;6252230;28;94648;-72
2023/05/02 07:45:04;;;;;;;4.47;4.07;;;23.10;77.60;;;;;;6240598;28;94064;-73
2023/05/02 07:48:06;;;;;;;4.68;4.18;;;23.10;77.50;;;;;;6249559;28;94096;-73
2023/05/02 07:51:11;;;;;;;4.40;4.00;;;23.10;77.50;;;;;;6246140;28;94085;-72
2023/05/02 07:54:16;;;;;;;4.00;3.70;;;23.10;77.50;;;;;;6247192;28;94563;-72
2023/05/02 07:57:18;;;;;;;4.35;3.95;;;23.10;77.50;;;;;;6245008;27;94063;-74
2023/05/02 08:00:20;;;;;;;4.97;4.47;;;23.10;77.70;;;;;;6253383;28;93380;-73
2023/05/02 08:03:22;;;;;;;4.18;3.78;;;23.10;77.60;;;;;;6240078;28;94184;-73
2023/05/02 08:06:26;;;;;;;4.15;3.75;;;23.10;77.60;;;;;;6240503;28;94174;-72
2023/05/02 08:09:28;;;;;;;3.88;3.47;;;23.10;77.60;;;;;;6242286;28;93919;-73
2023/05/02 08:12:30;;;;;;;4.13;3.78;;;23.10;77.50;;;;;;6251985;28;94169;-73
2023/05/02 08:15:32;;;;;;;3.90;3.60;;;23.10;77.50;;;;;;6250634;28;94210;-72
2023/05/02 08:18:34;;;;;;;4.10;3.80;;;23.10;77.40;;;;;;6244455;28;93993;-73
2023/05/02 08:21:37;;;;;;;5.22;3.70;;;23.10;77.40;;;;;;6253358;28;94117;-73
2023/05/02 08:24:39;;;;;;;4.13;3.70;;;23.10;77.40;;;;;;6252558;28;94136;-72
2023/05/02 08:27:42;;;;;;;4.18;3.78;;;23.10;77.40;;;;;;6247155;28;94149;-72
2023/05/02 08:30:44;;;;;;;3.90;3.50;;;23.20;77.40;;;;;;6241939;27;93712;-72
2023/05/02 08:33:46;;;;;;;3.70;3.40;;;23.10;77.40;;;;;;6253238;28;94033;-73
2023/05/02 08:36:49;;;;;;;3.95;3.55;;;23.20;77.60;;;;;;6240160;28;94109;-73
2023/05/02 08:39:51;;;;;;;3.83;3.53;;;23.20;77.50;;;;;;6250133;28;95446;-72
2023/05/02 08:42:55;;;;;;;3.63;3.33;;;23.20;77.60;;;;;;6249834;28;94141;-72
2023/05/02 08:46:01;;;;;;;3.95;3.50;;;23.20;77.50;;;;;;6251025;28;94259;-73
2023/05/02 08:49:04;;;;;;;4.70;3.70;;;23.20;77.60;;;;;;6252662;28;94050;-73
2023/05/02 08:52:10;;;;;;;4.82;3.50;;;23.20;77.50;;;;;;6238848;28;94126;-72
2023/05/02 08:55:13;;;;;;;3.70;3.38;;;23.20;77.50;;;;;;6240990;28;94287;-73
2023/05/02 08:58:15;;;;;;;3.80;3.50;;;23.10;77.40;;;;;;6239401;27;94074;-73
2023/05/02 09:01:20;;;;;;;4.07;3.55;;;23.20;77.50;;;;;;6230479;28;93339;-74
2023/05/02 09:04:24;;;;;;;3.35;3.05;;;23.20;77.50;;;;;;6251052;28;93770;-74
2023/05/02 09:07:27;;;;;;;4.32;3.78;;;23.20;77.50;;;;;;6245415;28;94085;-72
2023/05/02 09:10:31;;;;;;;4.13;3.58;;;23.20;77.40;;;;;;6251024;28;95296;-73
2023/05/02 09:13:35;;;;;;;3.50;3.20;;;23.20;77.50;;;;;;6251278;28;94410;-71
2023/05/02 09:16:39;;;;;;;4.30;3.50;;;23.20;77.50;;;;;;6246546;27;94816;-71
2023/05/02 09:19:41;;;;;;;3.47;3.17;;;23.20;77.50;;;;;;6244231;28;94255;-70
2023/05/02 09:22:50;;;;;;;4.10;3.50;;;23.20;77.40;;;;;;6249498;27;93746;-70
2023/05/02 09:25:52;;;;;;;3.53;3.22;;;23.20;77.50;;;;;;6242259;27;94205;-70
2023/05/02 09:28:55;;;;;;;3.63;3.15;;;23.20;77.60;;;;;;6252207;28;94110;-72
2023/05/02 09:31:57;;;;;;;6.95;3.40;;;23.20;77.60;;;;;;6250650;28;93334;-72
2023/05/02 09:35:06;;;;;;;3.05;2.80;;;23.20;78.10;;;;;;6249557;28;95350;-72
2023/05/02 09:38:20;;;;;;;4.10;3.05;;;23.20;77.90;;;;;;6244801;28;94198;-72
2023/05/02 09:41:22;;;;;;;3.40;3.10;;;23.20;77.90;;;;;;6248870;28;95067;-73
2023/05/02 09:44:25;;;;;;;3.55;3.25;;;23.20;77.70;;;;;;6240097;28;94143;-72
2023/05/02 09:47:27;;;;;;;3.40;3.10;;;23.20;77.70;;;;;;6253110;28;94202;-73
2023/05/02 09:50:34;;;;;;;3.33;2.95;;;23.20;77.70;;;;;;6253876;28;94100;-73
2023/05/02 09:53:45;;;;;;;3.80;3.30;;;23.20;77.60;;;;;;6253298;28;94007;-73
2023/05/02 09:56:55;;;;;;;3.38;3.08;;;23.20;77.50;;;;;;6253907;28;94254;-72
2023/05/02 09:59:58;;;;;;;5.78;3.58;;;23.30;77.60;;;;;;6241504;28;94445;-72
2023/05/02 10:03:01;;;;;;;3.10;2.88;;;23.30;77.60;;;;;;6244926;28;93328;-73
2023/05/02 10:06:04;;;;;;;3.08;2.80;;;23.30;77.60;;;;;;6241697;28;94571;-72
2023/05/02 10:09:09;;;;;;;3.83;2.80;;;23.30;77.60;;;;;;6254084;28;94038;-72
2023/05/02 10:12:15;;;;;;;3.10;2.80;;;23.30;77.50;;;;;;6250618;28;95441;-72
2023/05/02 10:15:21;;;;;;;2.97;2.67;;;23.30;77.50;;;;;;6250680;28;94234;-72
2023/05/02 10:18:28;;;;;;;3.15;2.78;;;23.30;77.50;;;;;;6246516;27;94077;-72
2023/05/02 10:21:31;;;;;;;3.15;2.90;;;23.30;77.50;;;;;;6254987;28;94242;-70
2023/05/02 10:24:34;;;;;;;3.10;2.80;;;23.30;77.50;;;;;;6252340;28;94668;-69
2023/05/02 10:27:37;;;;;;;3.20;2.90;;;23.30;77.50;;;;;;6253284;27;92977;-70
2023/05/02 10:30:40;;;;;;;2.70;2.50;;;23.30;77.60;;;;;;6253350;28;93996;-69
2023/05/02 10:33:42;;;;;;;3.10;2.80;;;23.30;77.50;;;;;;6240906;28;93474;-70
2023/05/02 10:36:44;;;;;;;4.38;3.30;;;23.30;77.50;;;;;;6247056;28;94114;-70
2023/05/02 10:39:48;;;;;;;3.80;3.10;;;23.30;77.40;;;;;;6255022;28;94180;-70
2023/05/02 10:42:51;;;;;;;3.08;2.78;;;23.30;77.40;;;;;;6250644;28;95481;-70
2023/05/02 10:45:54;;;;;;;2.97;2.78;;;23.30;78.30;;;;;;6249136;28;94107;-70
2023/05/02 10:49:07;;;;;;;3.20;2.70;;;23.30;77.40;;;;;;6252024;28;94032;-70
2023/05/02 10:52:28;;;;;;;3.20;2.90;;;23.30;77.40;;;;;;6254483;28;95442;-70
2023/05/02 10:55:31;;;;;;;4.25;3.35;;;23.30;77.40;;;;;;6246169;28;94022;-71
2023/05/02 10:58:33;;;;;;;3.65;3.10;;;23.30;77.40;;;;;;6251896;28;94472;-71
2023/05/02 11:01:40;;;;;;;3.33;2.97;;;23.30;77.40;;;;;;6244919;28;93048;-70
2023/05/02 11:05:02;;;;;;;2.70;2.50;;;23.30;77.40;;;;;;6253115;28;93198;-70
2023/05/02 11:08:32;;;;;;;3.67;2.75;;;23.30;77.40;;;;;;6234699;28;94093;-71
2023/05/02 11:11:42;;;;;;;4.28;2.90;;;23.30;77.40;;;;;;6253638;28;94148;-70
2023/05/02 11:14:49;;;;;;;3.05;2.70;;;23.30;77.40;;;;;;6247201;28;95098;-71
2023/05/02 11:18:01;;;;;;;4.03;3.10;;;23.30;77.40;;;;;;6247909;28;94086;-69
2023/05/02 11:21:26;;;;;;;3.42;2.78;;;23.30;77.40;;;;;;6253654;28;94225;-70
2023/05/02 11:24:41;;;;;;;2.75;2.50;;;23.30;77.40;;;;;;6245385;28;94208;-71
2023/05/02 11:27:48;;;;;;;2.83;2.63;;;23.30;77.40;;;;;;6253256;28;94225;-70
2023/05/02 11:30:50;;;;;;;2.75;2.55;;;23.30;77.40;;;;;;6251909;28;94157;-71
2023/05/02 11:33:56;;;;;;;2.80;2.58;;;23.40;77.50;;;;;;6247859;28;94215;-71
2023/05/02 11:36:58;;;;;;;2.80;2.60;;;23.30;77.40;;;;;;6241073;28;93402;-71
2023/05/02 11:40:11;;;;;;;2.80;2.60;;;23.40;77.40;;;;;;6251042;28;94117;-70
2023/05/02 11:43:16;;;;;;;2.60;2.40;;;23.30;77.40;;;;;;6251985;28;94032;-70
2023/05/02 11:46:19;;;;;;;3.22;2.80;;;23.40;77.40;;;;;;6252146;28;95204;-71
2023/05/02 11:49:22;;;;;;;2.60;2.40;;;23.40;77.40;;;;;;6253357;28;94084;-71
2023/05/02 11:52:24;;;;;;;3.65;2.92;;;23.40;77.30;;;;;;6246931;28;94597;-68
2023/05/02 11:55:26;;;;;;;3.25;2.85;;;23.30;77.20;;;;;;6253102;28;94148;-69
2023/05/02 11:58:32;;;;;;;3.10;2.80;;;23.30;77.20;;;;;;6250411;28;94100;-70
2023/05/02 12:01:34;;;;;;;3.33;2.95;;;23.30;77.10;;;;;;6254985;28;94143;-71
2023/05/02 12:04:43;;;;;;;3.47;2.78;;;23.30;77.60;;;;;;6244701;27;94103;-70
2023/05/02 12:07:47;;;;;;;3.15;2.65;;;23.30;77.50;;;;;;6250750;28;93372;-70
2023/05/02 12:10:51;;;;;;;2.92;2.67;;;23.30;77.30;;;;;;6244154;28;94191;-70
2023/05/02 12:13:55;;;;;;;2.80;2.60;;;23.30;77.10;;;;;;6240811;28;94406;-69
2023/05/02 12:16:58;;;;;;;2.92;2.60;;;23.30;77.10;;;;;;6243705;28;95070;-72
2023/05/02 12:20:02;;;;;;;2.70;2.50;;;23.40;77.50;;;;;;6247619;28;94264;-75
2023/05/02 12:23:06;;;;;;;2.75;2.55;;;23.40;78.50;;;;;;6252224;28;94124;-74
2023/05/02 12:26:19;;;;;;;4.03;3.17;;;23.30;77.70;;;;;;6252224;28;94049;-76
2023/05/02 12:29:22;;;;;;;5.47;3.10;;;23.40;77.50;;;;;;6251167;28;94230;-75
2023/05/02 12:32:29;;;;;;;5.28;3.70;;;23.40;77.50;;;;;;6245478;28;94055;-75
2023/05/02 12:35:32;;;;;;;9.48;4.70;;;23.30;77.60;;;;;;6236740;28;94146;-75
2023/05/02 12:38:34;;;;;;;10.40;5.00;;;23.30;78.00;;;;;;6243723;28;93378;-75
2023/05/02 12:41:38;;;;;;;11.65;5.63;;;23.30;78.30;;;;;;6248920;28;94205;-74
2023/05/02 12:44:42;;;;;;;15.10;6.07;;;23.30;78.80;;;;;;6242164;28;92969;-75
2023/05/02 12:47:45;;;;;;;23.40;8.65;;;23.30;78.80;;;;;;6251742;28;95018;-75
2023/05/02 12:50:48;;;;;;;15.13;6.60;;;23.30;78.70;;;;;;6244975;28;94610;-75
2023/05/02 12:53:52;;;;;;;11.90;5.63;;;23.30;78.20;;;;;;6246781;28;94024;-75
2023/05/02 12:56:54;;;;;;;15.68;6.05;;;23.30;78.10;;;;;;6249175;28;94059;-75
2023/05/02 12:59:57;;;;;;;13.15;5.20;;;23.30;78.00;;;;;;6233699;28;94416;-75
2023/05/02 13:02:59;;;;;;;9.90;4.90;;;23.30;77.80;;;;;;6251433;28;94335;-75
2023/05/02 13:06:02;;;;;;;14.07;5.70;;;23.30;77.70;;;;;;6239857;28;94131;-73
2023/05/02 13:09:04;;;;;;;15.75;6.00;;;23.30;77.70;;;;;;6250654;28;93339;-74
2023/05/02 13:12:06;;;;;;;17.17;7.22;;;23.30;77.80;;;;;;6250305;27;94152;-76
2023/05/02 13:15:10;;;;;;;22.15;8.02;;;23.30;78.10;;;;;;6251960;28;94056;-74
2023/05/02 13:18:12;;;;;;;20.33;8.48;;;23.30;78.80;;;;;;6248509;28;95308;-75
2023/05/02 13:21:15;;;;;;;16.17;7.47;;;23.30;79.60;;;;;;6242726;28;94197;-75
2023/05/02 13:24:17;;;;;;;13.63;6.60;;;23.40;79.80;;;;;;6241665;28;94207;-75
2023/05/02 13:27:19;;;;;;;14.10;5.95;;;23.30;79.20;;;;;;6252043;28;94515;-75
2023/05/02 13:30:22;;;;;;;9.90;5.05;;;23.30;79.60;;;;;;6250082;27;95666;-74
2023/05/02 13:33:25;;;;;;;11.50;5.00;;;23.40;79.50;;;;;;6246177;28;94081;-76
2023/05/02 13:36:27;;;;;;;8.98;4.70;;;23.40;79.20;;;;;;6241663;28;94253;-73
2023/05/02 13:39:29;;;;;;;9.18;4.57;;;23.40;79.10;;;;;;6251460;27;94077;-74
2023/05/02 13:42:31;;;;;;;7.03;4.20;;;23.40;78.90;;;;;;6251562;28;94172;-75
2023/05/02 13:45:35;;;;;;;8.10;4.32;;;23.40;78.80;;;;;;6248675;28;94159;-74
2023/05/02 13:48:37;;;;;;;7.18;4.53;;;23.40;78.70;;;;;;6249852;28;95342;-75
2023/05/02 13:51:39;;;;;;;8.02;4.40;;;23.40;78.60;;;;;;6251186;28;94200;-75
2023/05/02 13:54:41;;;;;;;7.05;4.03;;;23.40;78.70;;;;;;6234257;28;94187;-75
2023/05/02 13:57:43;;;;;;;8.80;4.38;;;23.40;78.60;;;;;;6251675;28;94142;-75
2023/05/02 14:00:47;;;;;;;8.15;4.22;;;23.50;78.60;;;;;;6247244;28;94109;-74
2023/05/02 14:03:51;;;;;;;6.50;4.22;;;23.40;78.40;;;;;;6250896;28;95182;-76
2023/05/02 14:06:53;;;;;;;7.63;4.18;;;23.40;78.40;;;;;;6251153;28;94273;-77
2023/05/02 14:09:55;;;;;;;9.32;4.32;;;23.40;78.30;;;;;;6240275;28;94003;-77
2023/05/02 14:12:57;;;;;;;5.72;3.72;;;23.50;78.30;;;;;;6250909;28;94101;-75
2023/05/02 14:16:00;;;;;;;6.32;3.70;;;23.50;78.30;;;;;;6251243;28;94464;-77
2023/05/02 14:19:02;;;;;;;4.43;3.58;;;23.40;78.10;;;;;;6243849;28;95035;-76
2023/05/02 14:22:04;;;;;;;4.75;3.33;;;23.50;78.20;;;;;;6248600;28;94171;-76
2023/05/02 14:25:07;;;;;;;5.53;3.65;;;23.50;78.20;;;;;;6244580;28;94093;-76
2023/05/02 14:28:09;;;;;;;5.05;3.47;;;23.40;78.10;;;;;;6250839;27;94483;-76
2023/05/02 14:31:12;;;;;;;4.97;3.45;;;23.50;78.20;;;;;;6247095;28;94153;-77
2023/05/02 14:34:14;;;;;;;3.90;3.28;;;23.50;78.10;;;;;;6252960;28;92981;-78
2023/05/02 14:37:17;;;;;;;5.20;3.53;;;23.50;78.10;;;;;;6246885;28;94094;-77
2023/05/02 14:40:19;;;;;;;5.90;3.70;;;23.50;78.00;;;;;;6242590;28;93583;-77
2023/05/02 14:43:21;;;;;;;4.93;3.45;;;23.40;78.00;;;;;;6254114;28;94223;-77
2023/05/02 14:46:24;;;;;;;5.18;3.65;;;23.40;77.90;;;;;;6242611;28;94152;-77
2023/05/02 14:49:27;;;;;;;5.15;3.53;;;23.50;77.90;;;;;;6234058;28;95338;-77
2023/05/02 14:52:29;;;;;;;5.15;3.20;;;23.50;77.90;;;;;;6242122;28;94314;-76
2023/05/02 14:55:37;;;;;;;4.25;3.30;;;23.40;77.90;;;;;;6243039;28;95120;-77
2023/05/02 14:58:39;;;;;;;5.35;3.60;;;23.50;78.00;;;;;;6251850;28;94288;-77
2023/05/02 15:01:43;;;;;;;6.18;4.00;;;23.50;77.90;;;;;;6243841;28;94099;-76
2023/05/02 15:04:45;;;;;;;5.03;3.67;;;23.50;77.90;;;;;;6243305;28;94271;-75
2023/05/02 15:07:47;;;;;;;3.47;3.17;;;23.50;77.80;;;;;;6253823;28;94178;-76
2023/05/02 15:10:49;;;;;;;4.72;3.38;;;23.50;77.80;;;;;;6253337;28;93407;-77
2023/05/02 15:13:51;;;;;;;4.68;3.28;;;23.50;77.90;;;;;;6253859;28;94129;-76
2023/05/02 15:16:55;;;;;;;6.07;3.45;;;23.50;78.00;;;;;;6254407;28;94147;-76
2023/05/02 15:19:57;;;;;;;4.57;3.28;;;23.50;78.00;;;;;;6252802;28;95128;-75
2023/05/02 15:23:02;;;;;;;6.00;3.75;;;23.40;78.00;;;;;;6253791;28;94181;-75
2023/05/02 15:26:04;;;;;;;6.00;3.30;;;23.40;78.10;;;;;;6254278;28;94163;-75
2023/05/02 15:29:06;;;;;;;5.57;3.55;;;23.50;78.00;;;;;;6254070;28;94135;-74
2023/05/02 15:32:09;;;;;;;5.45;3.38;;;23.40;77.90;;;;;;6253614;28;94049;-75
2023/05/02 15:35:11;;;;;;;4.28;3.10;;;23.40;77.90;;;;;;6245543;28;95348;-76
2023/05/02 15:38:15;;;;;;;4.20;3.35;;;23.40;77.80;;;;;;6253140;28;94180;-74
2023/05/02 15:41:17;;;;;;;3.85;3.15;;;23.40;77.70;;;;;;6241586;27;93458;-75
2023/05/02 15:44:19;;;;;;;4.18;3.30;;;23.40;77.70;;;;;;6253386;28;93992;-74
2023/05/02 15:47:22;;;;;;;4.75;3.30;;;23.40;77.70;;;;;;6254468;28;94490;-74
2023/05/02 15:50:25;;;;;;;4.45;3.25;;;23.40;77.60;;;;;;6252594;28;95227;-76
2023/05/02 15:53:28;;;;;;;4.70;3.70;;;23.40;77.60;;;;;;6253171;28;93291;-75
2023/05/02 15:56:30;;;;;;;4.05;3.30;;;23.40;77.60;;;;;;6243815;28;94133;-76